sensor_id;sensor_type;location;lat;lon;timestamp;pressure;altitude;pressure_sealevel;temperature;humidity
16355;BME280;8287;51.644;8.494;2022-10-04T00:02:26;101197.53;;;12.64;79.51
16355;BME280;8287;51.644;8.494;2022-10-04T00:04:57;101201.63;;;12.70;79.70
16355;BME280;8287;51.644;8.494;2022-10-04T00:07:30;101200.78;;;12.74;79.26
16355;BME280;8287;51.644;8.494;2022-10-04T00:10:03;101191.31;;;12.68;80.32
16355;BME280;8287;51.644;8.494;2022-10-04T00:12:34;101196.22;;;12.75;79.93
16355;BME280;8287;51.644;8.494;2022-10-04T00:15:05;101184.09;;;12.69;78.40
16355;BME280;8287;51.644;8.494;2022-10-04T00:17:40;101184.22;;;12.64;79.21
16355;BME280;8287;51.644;8.494;2022-10-04T00:23:29;101182.25;;;12.56;79.80
16355;BME280;8287;51.644;8.494;2022-10-04T00:26:12;101182.25;;;12.56;80.10
16355;BME280;8287;51.644;8.494;2022-10-04T00:28:44;101176.81;;;12.61;79.71
16355;BME280;8287;51.644;8.494;2022-10-04T00:31:18;101182.53;;;12.68;79.03
16355;BME280;8287;51.644;8.494;2022-10-04T00:33:48;101176.66;;;12.71;79.26
16355;BME280;8287;51.644;8.494;2022-10-04T00:36:43;101175.16;;;12.78;78.80
16355;BME280;8287;51.644;8.494;2022-10-04T00:39:14;101187.56;;;12.83;78.16
16355;BME280;8287;51.644;8.494;2022-10-04T00:41:52;101182.22;;;12.83;77.95
16355;BME280;8287;51.644;8.494;2022-10-04T00:44:22;101182.84;;;12.80;77.78
16355;BME280;8287;51.644;8.494;2022-10-04T00:46:54;101182.72;;;12.71;77.76
16355;BME280;8287;51.644;8.494;2022-10-04T00:49:24;101174.16;;;12.61;78.90
16355;BME280;8287;51.644;8.494;2022-10-04T00:51:55;101168.56;;;12.62;79.49
16355;BME280;8287;51.644;8.494;2022-10-04T00:54:29;101172.22;;;12.66;78.91
16355;BME280;8287;51.644;8.494;2022-10-04T00:57:03;101167.28;;;12.60;78.91
16355;BME280;8287;51.644;8.494;2022-10-04T00:59:34;101170.75;;;12.47;80.52
16355;BME280;8287;51.644;8.494;2022-10-04T01:02:06;101164.03;;;12.36;81.25
16355;BME280;8287;51.644;8.494;2022-10-04T01:04:43;101165.03;;;12.40;81.98
16355;BME280;8287;51.644;8.494;2022-10-04T01:07:14;101155.75;;;12.51;81.42
16355;BME280;8287;51.644;8.494;2022-10-04T01:09:47;101149.56;;;12.55;80.79
16355;BME280;8287;51.644;8.494;2022-10-04T01:12:30;101155.47;;;12.66;80.92
16355;BME280;8287;51.644;8.494;2022-10-04T01:15:03;101151.69;;;12.80;79.58
16355;BME280;8287;51.644;8.494;2022-10-04T01:17:31;101144.38;;;12.86;79.79
16355;BME280;8287;51.644;8.494;2022-10-04T01:19:58;101149.53;;;12.96;79.13
16355;BME280;8287;51.644;8.494;2022-10-04T01:22:39;101139.69;;;12.96;79.86
16355;BME280;8287;51.644;8.494;2022-10-04T01:25:07;101138.47;;;13.02;79.56
16355;BME280;8287;51.644;8.494;2022-10-04T01:27:36;101131.78;;;13.05;79.45
16355;BME280;8287;51.644;8.494;2022-10-04T01:30:08;101124.66;;;13.14;78.90
16355;BME280;8287;51.644;8.494;2022-10-04T01:32:36;101124.94;;;13.12;79.37
16355;BME280;8287;51.644;8.494;2022-10-04T01:35:06;101124.66;;;13.14;79.49
16355;BME280;8287;51.644;8.494;2022-10-04T01:37:34;101114.50;;;13.16;79.65
16355;BME280;8287;51.644;8.494;2022-10-04T01:40:02;101109.66;;;13.18;79.46
16355;BME280;8287;51.644;8.494;2022-10-04T01:42:34;101104.50;;;13.21;79.75
16355;BME280;8287;51.644;8.494;2022-10-04T01:45:05;101101.22;;;13.24;79.31
16355;BME280;8287;51.644;8.494;2022-10-04T01:47:42;101094.22;;;13.28;79.61
16355;BME280;8287;51.644;8.494;2022-10-04T01:50:13;101098.75;;;13.27;79.97
16355;BME280;8287;51.644;8.494;2022-10-04T01:52:43;101091.47;;;13.33;79.78
16355;BME280;8287;51.644;8.494;2022-10-04T01:55:15;101088.28;;;13.31;79.62
16355;BME280;8287;51.644;8.494;2022-10-04T01:57:47;101092.31;;;13.42;78.92
16355;BME280;8287;51.644;8.494;2022-10-04T02:00:19;101087.75;;;13.42;79.12
16355;BME280;8287;51.644;8.494;2022-10-04T02:02:51;101080.13;;;13.49;78.66
16355;BME280;8287;51.644;8.494;2022-10-04T02:05:26;101080.13;;;13.49;79.09
16355;BME280;8287;51.644;8.494;2022-10-04T02:07:55;101081.56;;;13.55;78.34
16355;BME280;8287;51.644;8.494;2022-10-04T02:10:24;101068.72;;;13.57;78.37
16355;BME280;8287;51.644;8.494;2022-10-04T02:12:52;101068.63;;;13.62;78.77
16355;BME280;8287;51.644;8.494;2022-10-04T02:15:21;101071.75;;;13.64;78.36
16355;BME280;8287;51.644;8.494;2022-10-04T02:17:51;101061.75;;;13.70;78.51
16355;BME280;8287;51.644;8.494;2022-10-04T02:20:22;101054.56;;;13.70;78.24
16355;BME280;8287;51.644;8.494;2022-10-04T02:22:52;101056.31;;;13.75;77.99
16355;BME280;8287;51.644;8.494;2022-10-04T02:25:21;101058.03;;;13.79;77.71
16355;BME280;8287;51.644;8.494;2022-10-04T02:27:52;101058.50;;;13.81;76.99
16355;BME280;8287;51.644;8.494;2022-10-04T02:30:19;101061.19;;;13.81;77.00
16355;BME280;8287;51.644;8.494;2022-10-04T02:32:46;101063.53;;;13.83;77.44
16355;BME280;8287;51.644;8.494;2022-10-04T02:35:26;101055.50;;;13.74;77.11
16355;BME280;8287;51.644;8.494;2022-10-04T02:38:06;101067.09;;;13.78;77.44
16355;BME280;8287;51.644;8.494;2022-10-04T02:40:39;101063.97;;;13.76;77.35
16355;BME280;8287;51.644;8.494;2022-10-04T02:43:12;101056.31;;;13.75;76.90
16355;BME280;8287;51.644;8.494;2022-10-04T02:45:45;101065.81;;;13.67;77.82
16355;BME280;8287;51.644;8.494;2022-10-04T02:48:26;101063.75;;;13.64;78.28
16355;BME280;8287;51.644;8.494;2022-10-04T02:50:56;101068.25;;;13.55;78.80
16355;BME280;8287;51.644;8.494;2022-10-04T02:53:30;101066.78;;;13.41;78.90
16355;BME280;8287;51.644;8.494;2022-10-04T02:56:01;101060.94;;;13.39;79.33
16355;BME280;8287;51.644;8.494;2022-10-04T02:58:29;101054.34;;;13.36;79.15
16355;BME280;8287;51.644;8.494;2022-10-04T03:00:59;101046.22;;;13.33;79.23
16355;BME280;8287;51.644;8.494;2022-10-04T03:03:27;101052.09;;;13.22;79.63
16355;BME280;8287;51.644;8.494;2022-10-04T03:06:03;101053.22;;;13.29;79.52
16355;BME280;8287;51.644;8.494;2022-10-04T03:08:34;101051.47;;;13.24;79.51
16355;BME280;8287;51.644;8.494;2022-10-04T03:11:03;101051.00;;;13.23;80.53
16355;BME280;8287;51.644;8.494;2022-10-04T03:13:32;101046.97;;;13.12;80.33
16355;BME280;8287;51.644;8.494;2022-10-04T03:16:01;101044.91;;;12.87;80.97
16355;BME280;8287;51.644;8.494;2022-10-04T03:18:28;101035.47;;;12.81;81.24
16355;BME280;8287;51.644;8.494;2022-10-04T03:20:56;101049.41;;;13.00;80.73
16355;BME280;8287;51.644;8.494;2022-10-04T03:23:23;101046.16;;;13.03;80.36
16355;BME280;8287;51.644;8.494;2022-10-04T03:25:53;101045.84;;;13.04;80.55
16355;BME280;8287;51.644;8.494;2022-10-04T03:28:21;101030.91;;;12.95;81.13
16355;BME280;8287;51.644;8.494;2022-10-04T03:30:49;101027.94;;;12.96;80.94
16355;BME280;8287;51.644;8.494;2022-10-04T03:33:19;101038.38;;;12.93;81.02
16355;BME280;8287;51.644;8.494;2022-10-04T03:35:49;101044.72;;;12.97;80.60
16355;BME280;8287;51.644;8.494;2022-10-04T03:38:18;101039.00;;;12.90;80.88
16355;BME280;8287;51.644;8.494;2022-10-04T03:40:50;101036.50;;;12.93;81.08
16355;BME280;8287;51.644;8.494;2022-10-04T03:43:21;101032.50;;;12.96;80.48
16355;BME280;8287;51.644;8.494;2022-10-04T03:45:51;101040.25;;;13.06;80.43
16355;BME280;8287;51.644;8.494;2022-10-04T03:48:25;101037.22;;;12.99;80.05
16355;BME280;8287;51.644;8.494;2022-10-04T03:50:54;101042.41;;;12.90;79.56
16355;BME280;8287;51.644;8.494;2022-10-04T03:53:28;101037.81;;;12.82;78.90
16355;BME280;8287;51.644;8.494;2022-10-04T03:55:56;101038.84;;;12.73;78.46
16355;BME280;8287;51.644;8.494;2022-10-04T03:58:25;101033.97;;;12.66;79.98
16355;BME280;8287;51.644;8.494;2022-10-04T04:01:09;101039.56;;;12.65;79.09
16355;BME280;8287;51.644;8.494;2022-10-04T04:03:46;101037.00;;;12.60;78.64
16355;BME280;8287;51.644;8.494;2022-10-04T04:06:18;101039.28;;;12.53;78.57
16355;BME280;8287;51.644;8.494;2022-10-04T04:08:48;101041.06;;;12.44;79.47
16355;BME280;8287;51.644;8.494;2022-10-04T04:11:22;101027.91;;;12.39;79.48
16355;BME280;8287;51.644;8.494;2022-10-04T04:13:54;101032.44;;;12.38;79.98
16355;BME280;8287;51.644;8.494;2022-10-04T04:16:25;101025.13;;;12.44;80.46
16355;BME280;8287;51.644;8.494;2022-10-04T04:18:54;101026.88;;;12.48;80.39
16355;BME280;8287;51.644;8.494;2022-10-04T04:21:24;101035.25;;;12.55;81.14
16355;BME280;8287;51.644;8.494;2022-10-04T04:23:54;101037.81;;;12.60;80.71
16355;BME280;8287;51.644;8.494;2022-10-04T04:26:27;101028.56;;;12.58;81.00
16355;BME280;8287;51.644;8.494;2022-10-04T04:28:57;101024.22;;;12.62;80.22
16355;BME280;8287;51.644;8.494;2022-10-04T04:31:32;101009.22;;;12.66;80.85
16355;BME280;8287;51.644;8.494;2022-10-04T04:34:01;101007.91;;;12.77;80.62
16355;BME280;8287;51.644;8.494;2022-10-04T04:36:30;100997.16;;;12.82;80.56
16355;BME280;8287;51.644;8.494;2022-10-04T04:39:08;101002.69;;;12.94;79.96
16355;BME280;8287;51.644;8.494;2022-10-04T04:41:56;100994.53;;;13.04;79.86
16355;BME280;8287;51.644;8.494;2022-10-04T04:44:24;100977.03;;;13.11;80.11
16355;BME280;8287;51.644;8.494;2022-10-04T04:46:52;100973.56;;;13.11;79.65
16355;BME280;8287;51.644;8.494;2022-10-04T04:49:26;100981.91;;;13.18;79.79
16355;BME280;8287;51.644;8.494;2022-10-04T04:51:54;100986.81;;;13.24;79.83
16355;BME280;8287;51.644;8.494;2022-10-04T04:54:24;100989.53;;;13.32;78.93
16355;BME280;8287;51.644;8.494;2022-10-04T04:56:53;100987.69;;;13.41;79.19
16355;BME280;8287;51.644;8.494;2022-10-04T04:59:23;100984.25;;;13.41;78.71
16355;BME280;8287;51.644;8.494;2022-10-04T05:01:53;100982.25;;;13.46;78.71
16355;BME280;8287;51.644;8.494;2022-10-04T05:04:21;100973.31;;;13.51;78.18
16355;BME280;8287;51.644;8.494;2022-10-04T05:06:58;100973.00;;;13.52;78.03
16355;BME280;8287;51.644;8.494;2022-10-04T05:09:28;100979.13;;;13.53;78.17
16355;BME280;8287;51.644;8.494;2022-10-04T05:12:00;100979.91;;;13.53;77.71
16355;BME280;8287;51.644;8.494;2022-10-04T05:14:33;100979.56;;;13.46;78.17
16355;BME280;8287;51.644;8.494;2022-10-04T05:17:01;100985.31;;;13.40;79.91
16355;BME280;8287;51.644;8.494;2022-10-04T05:19:31;100989.41;;;13.37;79.47
16355;BME280;8287;51.644;8.494;2022-10-04T05:22:01;100992.06;;;13.37;78.66
16355;BME280;8287;51.644;8.494;2022-10-04T05:24:30;100990.72;;;13.26;78.24
16355;BME280;8287;51.644;8.494;2022-10-04T05:27:00;100980.97;;;13.14;78.95
16355;BME280;8287;51.644;8.494;2022-10-04T05:29:31;100992.72;;;13.13;79.70
16355;BME280;8287;51.644;8.494;2022-10-04T05:32:10;100991.72;;;13.09;80.16
16355;BME280;8287;51.644;8.494;2022-10-04T05:34:42;100987.94;;;13.01;80.30
16355;BME280;8287;51.644;8.494;2022-10-04T05:37:29;100987.06;;;13.14;80.24
16355;BME280;8287;51.644;8.494;2022-10-04T05:40:05;100990.16;;;13.08;79.90
16355;BME280;8287;51.644;8.494;2022-10-04T05:42:39;100993.19;;;13.15;80.11
16355;BME280;8287;51.644;8.494;2022-10-04T05:45:16;100991.09;;;13.12;79.70
16355;BME280;8287;51.644;8.494;2022-10-04T05:47:46;100989.22;;;13.04;80.05
16355;BME280;8287;51.644;8.494;2022-10-04T05:50:18;100984.41;;;12.70;80.88
16355;BME280;8287;51.644;8.494;2022-10-04T05:52:48;100991.66;;;12.78;81.26
16355;BME280;8287;51.644;8.494;2022-10-04T05:55:21;101002.00;;;12.80;81.09
16355;BME280;8287;51.644;8.494;2022-10-04T05:58:09;100993.50;;;12.78;80.79
16355;BME280;8287;51.644;8.494;2022-10-04T06:00:57;100994.78;;;12.80;80.63
16355;BME280;8287;51.644;8.494;2022-10-04T06:03:40;101006.34;;;12.76;80.09
16355;BME280;8287;51.644;8.494;2022-10-04T06:06:15;100999.41;;;12.66;81.04
16355;BME280;8287;51.644;8.494;2022-10-04T06:08:50;100995.94;;;12.66;81.47
16355;BME280;8287;51.644;8.494;2022-10-04T06:11:31;100997.97;;;12.47;82.93
16355;BME280;8287;51.644;8.494;2022-10-04T06:14:34;100997.97;;;12.47;83.18
16355;BME280;8287;51.644;8.494;2022-10-04T06:17:25;100993.94;;;12.49;83.71
16355;BME280;8287;51.644;8.494;2022-10-04T06:20:08;100995.56;;;12.59;83.56
16355;BME280;8287;51.644;8.494;2022-10-04T06:22:42;101001.25;;;12.66;83.63
16355;BME280;8287;51.644;8.494;2022-10-04T06:25:14;101003.00;;;12.70;82.70
16355;BME280;8287;51.644;8.494;2022-10-04T06:27:48;101011.28;;;12.69;83.02
16355;BME280;8287;51.644;8.494;2022-10-04T06:30:19;101012.44;;;12.76;82.95
16355;BME280;8287;51.644;8.494;2022-10-04T06:33:01;101004.16;;;12.78;83.22
16355;BME280;8287;51.644;8.494;2022-10-04T06:35:47;101011.84;;;12.79;83.84
16355;BME280;8287;51.644;8.494;2022-10-04T06:38:43;101006.94;;;12.73;83.51
16355;BME280;8287;51.644;8.494;2022-10-04T06:41:36;101008.41;;;12.79;83.69
16355;BME280;8287;51.644;8.494;2022-10-04T06:44:34;101001.50;;;12.78;82.97
16355;BME280;8287;51.644;8.494;2022-10-04T06:47:17;101006.28;;;12.67;83.11
16355;BME280;8287;51.644;8.494;2022-10-04T06:49:53;101008.50;;;12.74;83.31
16355;BME280;8287;51.644;8.494;2022-10-04T06:52:28;101012.31;;;12.81;83.97
16355;BME280;8287;51.644;8.494;2022-10-04T06:55:23;101001.34;;;12.74;84.15
16355;BME280;8287;51.644;8.494;2022-10-04T07:00:50;100994.53;;;12.90;84.13
16355;BME280;8287;51.644;8.494;2022-10-04T07:03:22;100993.78;;;12.90;84.28
16355;BME280;8287;51.644;8.494;2022-10-04T07:05:53;101001.06;;;12.98;84.28
16355;BME280;8287;51.644;8.494;2022-10-04T07:08:26;100997.97;;;13.04;83.20
16355;BME280;8287;51.644;8.494;2022-10-04T07:10:58;100997.28;;;13.21;81.80
16355;BME280;8287;51.644;8.494;2022-10-04T07:13:33;100996.50;;;13.20;82.39
16355;BME280;8287;51.644;8.494;2022-10-04T07:16:07;100997.88;;;13.18;83.00
16355;BME280;8287;51.644;8.494;2022-10-04T07:18:40;100993.22;;;13.23;83.16
16355;BME280;8287;51.644;8.494;2022-10-04T07:21:12;100987.13;;;13.23;83.31
16355;BME280;8287;51.644;8.494;2022-10-04T07:23:47;100991.97;;;13.21;83.51
16355;BME280;8287;51.644;8.494;2022-10-04T07:26:21;100981.81;;;13.23;84.14
16355;BME280;8287;51.644;8.494;2022-10-04T07:28:54;100984.06;;;13.37;84.32
16355;BME280;8287;51.644;8.494;2022-10-04T07:31:41;100981.16;;;13.47;83.57
16355;BME280;8287;51.644;8.494;2022-10-04T07:34:13;100982.25;;;13.46;84.34
16355;BME280;8287;51.644;8.494;2022-10-04T07:36:44;100985.25;;;13.62;83.69
16355;BME280;8287;51.644;8.494;2022-10-04T07:39:15;100995.03;;;13.75;83.69
16355;BME280;8287;51.644;8.494;2022-10-04T07:41:47;101004.47;;;13.89;82.88
16355;BME280;8287;51.644;8.494;2022-10-04T07:44:22;100993.84;;;13.98;83.08
16355;BME280;8287;51.644;8.494;2022-10-04T07:46:54;100991.19;;;14.06;83.05
16355;BME280;8287;51.644;8.494;2022-10-04T07:49:24;101000.75;;;14.16;83.41
16355;BME280;8287;51.644;8.494;2022-10-04T07:52:19;100988.25;;;14.16;82.69
16355;BME280;8287;51.644;8.494;2022-10-04T07:54:58;100989.69;;;14.31;82.84
16355;BME280;8287;51.644;8.494;2022-10-04T07:57:32;100995.81;;;14.57;80.06
16355;BME280;8287;51.644;8.494;2022-10-04T08:00:11;101000.84;;;14.75;78.82
16355;BME280;8287;51.644;8.494;2022-10-04T08:02:50;101000.84;;;14.92;77.94
16355;BME280;8287;51.644;8.494;2022-10-04T08:05:21;101010.84;;;15.12;77.25
16355;BME280;8287;51.644;8.494;2022-10-04T08:08:04;101004.69;;;15.29;75.74
16355;BME280;8287;51.644;8.494;2022-10-04T08:10:42;101005.47;;;15.38;74.70
16355;BME280;8287;51.644;8.494;2022-10-04T08:13:19;101002.44;;;15.56;74.71
16355;BME280;8287;51.644;8.494;2022-10-04T08:15:51;101003.47;;;15.72;74.20
16355;BME280;8287;51.644;8.494;2022-10-04T08:18:30;101009.22;;;15.83;73.92
16355;BME280;8287;51.644;8.494;2022-10-04T08:21:05;101007.72;;;16.02;73.65
16355;BME280;8287;51.644;8.494;2022-10-04T08:23:49;101013.03;;;16.11;72.32
16355;BME280;8287;51.644;8.494;2022-10-04T08:26:37;101004.75;;;16.24;70.08
16355;BME280;8287;51.644;8.494;2022-10-04T08:29:33;101003.25;;;16.35;70.74
16355;BME280;8287;51.644;8.494;2022-10-04T08:32:19;100997.28;;;16.38;70.34
16355;BME280;8287;51.644;8.494;2022-10-04T08:35:13;100995.97;;;16.44;69.71
16355;BME280;8287;51.644;8.494;2022-10-04T08:37:50;100997.34;;;16.50;69.76
16355;BME280;8287;51.644;8.494;2022-10-04T08:40:52;101001.16;;;16.49;69.58
16355;BME280;8287;51.644;8.494;2022-10-04T08:47:11;100989.94;;;16.67;69.70
16355;BME280;8287;51.644;8.494;2022-10-04T08:50:05;100990.78;;;16.80;69.23
16355;BME280;8287;51.644;8.494;2022-10-04T08:52:57;100995.97;;;16.97;69.16
16355;BME280;8287;51.644;8.494;2022-10-04T08:56:04;100996.69;;;17.06;67.90
16355;BME280;8287;51.644;8.494;2022-10-04T08:58:58;101000.84;;;17.15;67.87
16355;BME280;8287;51.644;8.494;2022-10-04T09:02:02;100996.72;;;17.18;66.84
16355;BME280;8287;51.644;8.494;2022-10-04T09:04:49;100983.47;;;17.33;67.35
16355;BME280;8287;51.644;8.494;2022-10-04T09:10:37;100997.25;;;17.44;65.73
16355;BME280;8287;51.644;8.494;2022-10-04T09:13:22;100988.34;;;17.52;65.24
16355;BME280;8287;51.644;8.494;2022-10-04T09:16:03;100992.59;;;17.65;64.15
16355;BME280;8287;51.644;8.494;2022-10-04T09:19:10;100992.34;;;17.70;64.70
16355;BME280;8287;51.644;8.494;2022-10-04T09:21:55;100992.38;;;17.82;65.05
16355;BME280;8287;51.644;8.494;2022-10-04T09:25:04;100982.75;;;17.81;63.01
16355;BME280;8287;51.644;8.494;2022-10-04T09:27:49;100992.03;;;17.95;62.31
16355;BME280;8287;51.644;8.494;2022-10-04T09:30:19;100989.66;;;18.06;63.73
16355;BME280;8287;51.644;8.494;2022-10-04T09:35:53;100985.63;;;18.24;63.31
16355;BME280;8287;51.644;8.494;2022-10-04T09:38:36;100979.69;;;18.30;62.97
16355;BME280;8287;51.644;8.494;2022-10-04T09:41:25;100975.53;;;18.45;62.27
16355;BME280;8287;51.644;8.494;2022-10-04T09:47:15;100965.69;;;18.49;60.32
16355;BME280;8287;51.644;8.494;2022-10-04T09:52:45;100968.59;;;18.44;60.29
16355;BME280;8287;51.644;8.494;2022-10-04T09:55:40;100956.34;;;18.58;60.58
16355;BME280;8287;51.644;8.494;2022-10-04T09:58:23;100957.47;;;18.85;60.49
16355;BME280;8287;51.644;8.494;2022-10-04T10:01:04;100952.97;;;18.89;59.75
16355;BME280;8287;51.644;8.494;2022-10-04T10:03:58;100952.91;;;19.01;58.77
16355;BME280;8287;51.644;8.494;2022-10-04T10:07:00;100941.38;;;19.00;58.03
16355;BME280;8287;51.644;8.494;2022-10-04T10:09:36;100944.34;;;19.11;57.45
16355;BME280;8287;51.644;8.494;2022-10-04T10:12:45;100938.47;;;19.21;58.15
16355;BME280;8287;51.644;8.494;2022-10-04T10:15:42;100932.16;;;19.29;57.72
16355;BME280;8287;51.644;8.494;2022-10-04T10:18:25;100927.81;;;19.40;58.00
16355;BME280;8287;51.644;8.494;2022-10-04T10:21:09;100932.94;;;19.45;56.37
16355;BME280;8287;51.644;8.494;2022-10-04T10:23:56;100928.25;;;19.42;56.23
16355;BME280;8287;51.644;8.494;2022-10-04T10:26:51;100928.50;;;19.52;57.15
16355;BME280;8287;51.644;8.494;2022-10-04T10:29:43;100927.19;;;19.62;57.28
16355;BME280;8287;51.644;8.494;2022-10-04T10:32:32;100925.16;;;19.74;55.79
16355;BME280;8287;51.644;8.494;2022-10-04T10:35:18;100921.69;;;19.74;55.10
16355;BME280;8287;51.644;8.494;2022-10-04T10:38:01;100918.56;;;19.87;55.08
16355;BME280;8287;51.644;8.494;2022-10-04T10:40:47;100916.38;;;19.93;54.47
16355;BME280;8287;51.644;8.494;2022-10-04T10:43:36;100909.44;;;19.92;53.10
16355;BME280;8287;51.644;8.494;2022-10-04T10:46:25;100902.34;;;20.03;53.71
16355;BME280;8287;51.644;8.494;2022-10-04T10:49:14;100901.00;;;20.09;54.03
16355;BME280;8287;51.644;8.494;2022-10-04T10:52:09;100900.06;;;20.20;53.86
16355;BME280;8287;51.644;8.494;2022-10-04T10:55:16;100900.75;;;20.17;53.13
16355;BME280;8287;51.644;8.494;2022-10-04T10:58:31;100893.31;;;20.30;52.50
16355;BME280;8287;51.644;8.494;2022-10-04T11:01:23;100894.03;;;20.45;51.43
16355;BME280;8287;51.644;8.494;2022-10-04T11:04:11;100892.25;;;20.53;52.28
16355;BME280;8287;51.644;8.494;2022-10-04T11:07:13;100887.66;;;20.53;50.63
16355;BME280;8287;51.644;8.494;2022-10-04T11:10:11;100893.31;;;20.67;51.46
16355;BME280;8287;51.644;8.494;2022-10-04T11:13:06;100894.69;;;20.80;51.63
16355;BME280;8287;51.644;8.494;2022-10-04T11:19:01;100887.34;;;21.00;51.37
16355;BME280;8287;51.644;8.494;2022-10-04T11:21:59;100885.53;;;21.07;49.88
16355;BME280;8287;51.644;8.494;2022-10-04T11:24:55;100878.91;;;21.24;51.24
16355;BME280;8287;51.644;8.494;2022-10-04T11:27:38;100889.78;;;21.31;50.07
16355;BME280;8287;51.644;8.494;2022-10-04T11:30:15;100884.06;;;21.36;51.41
16355;BME280;8287;51.644;8.494;2022-10-04T11:33:14;100879.84;;;21.35;49.33
16355;BME280;8287;51.644;8.494;2022-10-04T11:38:51;100871.22;;;21.52;48.92
16355;BME280;8287;51.644;8.494;2022-10-04T11:41:28;100866.00;;;21.62;48.43
16355;BME280;8287;51.644;8.494;2022-10-04T11:44:23;100866.13;;;21.69;47.81
16355;BME280;8287;51.644;8.494;2022-10-04T11:46:58;100862.47;;;21.84;48.08
16355;BME280;8287;51.644;8.494;2022-10-04T11:49:44;100859.97;;;22.02;48.31
16355;BME280;8287;51.644;8.494;2022-10-04T11:52:38;100857.63;;;21.97;47.15
16355;BME280;8287;51.644;8.494;2022-10-04T11:55:36;100855.59;;;22.23;47.35
16355;BME280;8287;51.644;8.494;2022-10-04T11:58:12;100858.44;;;22.34;46.17
16355;BME280;8287;51.644;8.494;2022-10-04T12:01:10;100843.25;;;22.55;46.26
16355;BME280;8287;51.644;8.494;2022-10-04T12:03:54;100846.44;;;22.64;45.03
16355;BME280;8287;51.644;8.494;2022-10-04T12:06:38;100843.00;;;22.67;45.13
16355;BME280;8287;51.644;8.494;2022-10-04T12:09:17;100843.03;;;22.74;44.88
16355;BME280;8287;51.644;8.494;2022-10-04T12:15:06;100838.59;;;22.96;44.64
16355;BME280;8287;51.644;8.494;2022-10-04T12:18:01;100832.78;;;22.94;43.42
16355;BME280;8287;51.644;8.494;2022-10-04T12:20:50;100812.78;;;23.02;44.35
16355;BME280;8287;51.644;8.494;2022-10-04T12:23:42;100821.63;;;22.99;42.99
16355;BME280;8287;51.644;8.494;2022-10-04T12:26:42;100819.50;;;23.18;42.96
16355;BME280;8287;51.644;8.494;2022-10-04T12:32:18;100802.22;;;23.37;43.91
16355;BME280;8287;51.644;8.494;2022-10-04T12:34:57;100810.41;;;23.51;44.18
16355;BME280;8287;51.644;8.494;2022-10-04T12:37:31;100812.44;;;23.71;43.77
16355;BME280;8287;51.644;8.494;2022-10-04T12:40:18;100797.34;;;23.67;42.99
16355;BME280;8287;51.644;8.494;2022-10-04T12:42:54;100798.16;;;23.74;42.90
16355;BME280;8287;51.644;8.494;2022-10-04T12:45:36;100804.66;;;23.56;43.73
16355;BME280;8287;51.644;8.494;2022-10-04T12:48:22;100785.41;;;23.75;44.17
16355;BME280;8287;51.644;8.494;2022-10-04T12:50:55;100775.09;;;24.15;44.47
16355;BME280;8287;51.644;8.494;2022-10-04T12:53:35;100783.69;;;24.41;43.26
16355;BME280;8287;51.644;8.494;2022-10-04T12:56:07;100779.78;;;24.32;42.64
16355;BME280;8287;51.644;8.494;2022-10-04T12:59:02;100792.22;;;24.68;44.13
16355;BME280;8287;51.644;8.494;2022-10-04T13:01:35;100784.88;;;24.65;43.73
16355;BME280;8287;51.644;8.494;2022-10-04T13:04:14;100785.25;;;24.88;41.73
16355;BME280;8287;51.644;8.494;2022-10-04T13:06:56;100786.03;;;24.92;40.90
16355;BME280;8287;51.644;8.494;2022-10-04T13:09:34;100777.50;;;24.93;41.08
16355;BME280;8287;51.644;8.494;2022-10-04T13:12:18;100771.31;;;24.79;40.44
16355;BME280;8287;51.644;8.494;2022-10-04T13:15:07;100767.41;;;25.01;41.46
16355;BME280;8287;51.644;8.494;2022-10-04T13:17:43;100774.03;;;24.82;41.59
16355;BME280;8287;51.644;8.494;2022-10-04T13:20:38;100769.75;;;25.06;40.58
16355;BME280;8287;51.644;8.494;2022-10-04T13:23:19;100770.88;;;25.26;41.20
16355;BME280;8287;51.644;8.494;2022-10-04T13:26:09;100757.34;;;25.15;40.24
16355;BME280;8287;51.644;8.494;2022-10-04T13:28:48;100754.97;;;25.35;40.86
16355;BME280;8287;51.644;8.494;2022-10-04T13:31:23;100753.38;;;25.51;40.36
16355;BME280;8287;51.644;8.494;2022-10-04T13:34:06;100744.00;;;25.70;41.03
16355;BME280;8287;51.644;8.494;2022-10-04T13:36:49;100750.84;;;25.95;39.00
16355;BME280;8287;51.644;8.494;2022-10-04T13:39:31;100738.38;;;26.05;38.88
16355;BME280;8287;51.644;8.494;2022-10-04T13:42:15;100740.78;;;25.92;37.70
16355;BME280;8287;51.644;8.494;2022-10-04T13:45:02;100739.28;;;25.88;37.91
16355;BME280;8287;51.644;8.494;2022-10-04T13:50:51;100736.94;;;25.90;37.88
16355;BME280;8287;51.644;8.494;2022-10-04T13:53:31;100722.72;;;26.26;37.69
16355;BME280;8287;51.644;8.494;2022-10-04T13:56:36;100729.06;;;26.06;38.57
16355;BME280;8287;51.644;8.494;2022-10-04T13:59:15;100728.53;;;26.25;36.05
16355;BME280;8287;51.644;8.494;2022-10-04T14:02:03;100730.41;;;26.35;37.18
16355;BME280;8287;51.644;8.494;2022-10-04T14:07:47;100721.75;;;26.54;36.88
16355;BME280;8287;51.644;8.494;2022-10-04T14:10:42;100710.00;;;26.64;37.25
16355;BME280;8287;51.644;8.494;2022-10-04T14:13:30;100711.94;;;26.63;37.33
16355;BME280;8287;51.644;8.494;2022-10-04T14:19:37;100718.63;;;26.96;35.88
16355;BME280;8287;51.644;8.494;2022-10-04T14:28:55;100707.69;;;26.62;34.07
16355;BME280;8287;51.644;8.494;2022-10-04T14:31:40;100699.72;;;26.82;35.29
16355;BME280;8287;51.644;8.494;2022-10-04T14:37:35;100696.88;;;26.96;34.83
16355;BME280;8287;51.644;8.494;2022-10-04T14:40:36;100689.09;;;26.94;34.81
16355;BME280;8287;51.644;8.494;2022-10-04T14:43:46;100695.19;;;27.05;32.97
16355;BME280;8287;51.644;8.494;2022-10-04T14:46:21;100693.63;;;27.08;33.55
16355;BME280;8287;51.644;8.494;2022-10-04T14:49:03;100687.88;;;26.99;33.48
16355;BME280;8287;51.644;8.494;2022-10-04T14:51:49;100693.38;;;26.95;34.77
16355;BME280;8287;51.644;8.494;2022-10-04T14:54:35;100704.56;;;26.64;34.15
16355;BME280;8287;51.644;8.494;2022-10-04T14:57:09;100708.00;;;26.68;33.30